sensor_id;sensor_type;location;lat;lon;timestamp;temperature;humidity
3069;DHT22;1545;51.728;8.796;2024-01-15T00:01:44;0.90;98.80
3069;DHT22;1545;51.728;8.796;2024-01-15T00:04:09;0.90;98.80
3069;DHT22;1545;51.728;8.796;2024-01-15T00:06:35;0.90;98.80
3069;DHT22;1545;51.728;8.796;2024-01-15T00:09:00;0.90;98.80
3069;DHT22;1545;51.728;8.796;2024-01-15T00:11:26;0.90;98.80
3069;DHT22;1545;51.728;8.796;2024-01-15T00:13:52;0.90;98.80
3069;DHT22;1545;51.728;8.796;2024-01-15T00:16:17;1.00;98.80
3069;DHT22;1545;51.728;8.796;2024-01-15T00:18:42;0.90;98.80
3069;DHT22;1545;51.728;8.796;2024-01-15T00:21:08;1.00;98.80
3069;DHT22;1545;51.728;8.796;2024-01-15T00:23:33;1.00;98.80
3069;DHT22;1545;51.728;8.796;2024-01-15T00:25:59;1.00;98.80
3069;DHT22;1545;51.728;8.796;2024-01-15T00:28:24;1.00;98.80
3069;DHT22;1545;51.728;8.796;2024-01-15T00:30:50;1.00;98.80
3069;DHT22;1545;51.728;8.796;2024-01-15T00:33:15;1.00;98.80
3069;DHT22;1545;51.728;8.796;2024-01-15T00:35:41;1.00;98.80
3069;DHT22;1545;51.728;8.796;2024-01-15T00:38:06;1.00;98.80
3069;DHT22;1545;51.728;8.796;2024-01-15T00:40:32;1.00;98.80
3069;DHT22;1545;51.728;8.796;2024-01-15T00:42:58;1.00;98.80
3069;DHT22;1545;51.728;8.796;2024-01-15T00:45:23;1.00;98.80
3069;DHT22;1545;51.728;8.796;2024-01-15T00:47:49;1.00;98.80
3069;DHT22;1545;51.728;8.796;2024-01-15T00:50:15;1.00;98.80
3069;DHT22;1545;51.728;8.796;2024-01-15T00:52:40;1.00;98.80
3069;DHT22;1545;51.728;8.796;2024-01-15T00:55:06;1.00;98.80
3069;DHT22;1545;51.728;8.796;2024-01-15T00:57:31;1.00;98.80
3069;DHT22;1545;51.728;8.796;2024-01-15T00:59:58;1.00;98.80
3069;DHT22;1545;51.728;8.796;2024-01-15T01:02:23;1.00;98.80
3069;DHT22;1545;51.728;8.796;2024-01-15T01:04:49;1.00;98.80
3069;DHT22;1545;51.728;8.796;2024-01-15T01:07:14;1.00;98.80
3069;DHT22;1545;51.728;8.796;2024-01-15T01:09:40;1.10;98.80
3069;DHT22;1545;51.728;8.796;2024-01-15T01:12:06;1.00;98.80
3069;DHT22;1545;51.728;8.796;2024-01-15T01:14:32;1.00;98.80
3069;DHT22;1545;51.728;8.796;2024-01-15T01:16:57;1.00;98.80
3069;DHT22;1545;51.728;8.796;2024-01-15T01:19:23;1.10;98.80
3069;DHT22;1545;51.728;8.796;2024-01-15T01:21:50;1.10;98.80
3069;DHT22;1545;51.728;8.796;2024-01-15T01:24:16;1.10;98.80
3069;DHT22;1545;51.728;8.796;2024-01-15T01:26:42;1.10;98.80
3069;DHT22;1545;51.728;8.796;2024-01-15T01:29:07;1.10;98.80
3069;DHT22;1545;51.728;8.796;2024-01-15T01:31:33;1.10;98.80
3069;DHT22;1545;51.728;8.796;2024-01-15T01:33:58;1.10;98.80
3069;DHT22;1545;51.728;8.796;2024-01-15T01:36:24;1.10;98.80
3069;DHT22;1545;51.728;8.796;2024-01-15T01:38:49;1.10;98.80
3069;DHT22;1545;51.728;8.796;2024-01-15T01:41:15;1.10;98.80
3069;DHT22;1545;51.728;8.796;2024-01-15T01:43:40;1.10;98.80
3069;DHT22;1545;51.728;8.796;2024-01-15T01:46:06;1.10;98.80
3069;DHT22;1545;51.728;8.796;2024-01-15T01:48:32;1.10;98.80
3069;DHT22;1545;51.728;8.796;2024-01-15T01:51:00;1.10;98.80
3069;DHT22;1545;51.728;8.796;2024-01-15T01:53:28;1.20;98.80
3069;DHT22;1545;51.728;8.796;2024-01-15T01:55:56;1.10;98.80
3069;DHT22;1545;51.728;8.796;2024-01-15T01:58:22;1.10;98.80
3069;DHT22;1545;51.728;8.796;2024-01-15T02:00:48;1.10;98.80
3069;DHT22;1545;51.728;8.796;2024-01-15T02:03:14;1.10;98.80
3069;DHT22;1545;51.728;8.796;2024-01-15T02:05:40;1.20;98.80
3069;DHT22;1545;51.728;8.796;2024-01-15T02:08:07;1.10;98.80
3069;DHT22;1545;51.728;8.796;2024-01-15T02:10:33;1.10;98.80
3069;DHT22;1545;51.728;8.796;2024-01-15T02:12:58;1.10;98.80
3069;DHT22;1545;51.728;8.796;2024-01-15T02:15:24;1.10;98.80
3069;DHT22;1545;51.728;8.796;2024-01-15T02:18:00;1.10;98.80
3069;DHT22;1545;51.728;8.796;2024-01-15T02:20:26;1.10;98.80
3069;DHT22;1545;51.728;8.796;2024-01-15T02:22:52;1.20;98.80
3069;DHT22;1545;51.728;8.796;2024-01-15T02:25:18;1.20;98.80
3069;DHT22;1545;51.728;8.796;2024-01-15T02:27:44;1.20;98.80
3069;DHT22;1545;51.728;8.796;2024-01-15T02:30:11;1.20;98.80
3069;DHT22;1545;51.728;8.796;2024-01-15T02:32:37;1.10;98.80
3069;DHT22;1545;51.728;8.796;2024-01-15T02:35:03;1.20;98.80
3069;DHT22;1545;51.728;8.796;2024-01-15T02:37:29;1.20;98.80
3069;DHT22;1545;51.728;8.796;2024-01-15T02:39:54;1.20;98.80
3069;DHT22;1545;51.728;8.796;2024-01-15T02:42:20;1.20;98.80
3069;DHT22;1545;51.728;8.796;2024-01-15T02:44:45;1.10;98.80
3069;DHT22;1545;51.728;8.796;2024-01-15T02:47:10;1.20;98.80
3069;DHT22;1545;51.728;8.796;2024-01-15T02:49:36;1.20;98.80
3069;DHT22;1545;51.728;8.796;2024-01-15T02:52:02;1.10;98.80
3069;DHT22;1545;51.728;8.796;2024-01-15T02:54:27;1.20;98.80
3069;DHT22;1545;51.728;8.796;2024-01-15T02:56:53;1.20;98.80
3069;DHT22;1545;51.728;8.796;2024-01-15T02:59:18;1.20;98.80
3069;DHT22;1545;51.728;8.796;2024-01-15T03:01:44;1.20;98.80
3069;DHT22;1545;51.728;8.796;2024-01-15T03:04:09;1.30;98.80
3069;DHT22;1545;51.728;8.796;2024-01-15T03:06:35;1.30;98.80
3069;DHT22;1545;51.728;8.796;2024-01-15T03:09:00;1.30;98.80
3069;DHT22;1545;51.728;8.796;2024-01-15T03:11:25;1.30;98.80
3069;DHT22;1545;51.728;8.796;2024-01-15T03:13:51;1.30;98.80
3069;DHT22;1545;51.728;8.796;2024-01-15T03:16:17;1.30;98.80
3069;DHT22;1545;51.728;8.796;2024-01-15T03:18:44;1.30;98.80
3069;DHT22;1545;51.728;8.796;2024-01-15T03:21:10;1.30;98.80
3069;DHT22;1545;51.728;8.796;2024-01-15T03:23:35;1.30;98.80
3069;DHT22;1545;51.728;8.796;2024-01-15T03:26:01;1.30;98.80
3069;DHT22;1545;51.728;8.796;2024-01-15T03:28:26;1.30;98.80
3069;DHT22;1545;51.728;8.796;2024-01-15T03:30:52;1.30;98.80
3069;DHT22;1545;51.728;8.796;2024-01-15T03:33:17;1.30;98.80
3069;DHT22;1545;51.728;8.796;2024-01-15T03:35:42;1.30;98.80
3069;DHT22;1545;51.728;8.796;2024-01-15T03:38:08;1.30;98.80
3069;DHT22;1545;51.728;8.796;2024-01-15T03:40:33;1.30;98.80
3069;DHT22;1545;51.728;8.796;2024-01-15T03:42:59;1.30;98.80
3069;DHT22;1545;51.728;8.796;2024-01-15T03:45:24;1.30;98.80
3069;DHT22;1545;51.728;8.796;2024-01-15T03:47:50;1.30;98.80
3069;DHT22;1545;51.728;8.796;2024-01-15T03:50:15;1.30;98.80
3069;DHT22;1545;51.728;8.796;2024-01-15T03:52:41;1.30;98.80
3069;DHT22;1545;51.728;8.796;2024-01-15T03:55:06;1.30;98.80
3069;DHT22;1545;51.728;8.796;2024-01-15T03:57:32;1.30;98.80
3069;DHT22;1545;51.728;8.796;2024-01-15T03:59:57;1.30;98.80
3069;DHT22;1545;51.728;8.796;2024-01-15T04:02:23;1.30;98.80
3069;DHT22;1545;51.728;8.796;2024-01-15T04:04:48;1.30;98.80
3069;DHT22;1545;51.728;8.796;2024-01-15T04:07:14;1.30;98.80
3069;DHT22;1545;51.728;8.796;2024-01-15T04:09:39;1.40;98.80
3069;DHT22;1545;51.728;8.796;2024-01-15T04:12:05;1.30;98.80
3069;DHT22;1545;51.728;8.796;2024-01-15T04:14:30;1.30;98.80
3069;DHT22;1545;51.728;8.796;2024-01-15T04:16:56;1.30;98.80
3069;DHT22;1545;51.728;8.796;2024-01-15T04:19:21;1.30;98.80
3069;DHT22;1545;51.728;8.796;2024-01-15T04:21:47;1.30;98.80
3069;DHT22;1545;51.728;8.796;2024-01-15T04:24:12;1.30;98.80
3069;DHT22;1545;51.728;8.796;2024-01-15T04:26:38;1.40;98.80
3069;DHT22;1545;51.728;8.796;2024-01-15T04:29:03;1.40;98.80
3069;DHT22;1545;51.728;8.796;2024-01-15T04:31:28;1.30;98.80
3069;DHT22;1545;51.728;8.796;2024-01-15T04:33:54;1.30;98.80
3069;DHT22;1545;51.728;8.796;2024-01-15T04:36:20;1.30;98.80
3069;DHT22;1545;51.728;8.796;2024-01-15T04:38:45;1.30;98.80
3069;DHT22;1545;51.728;8.796;2024-01-15T04:41:14;1.30;98.80
3069;DHT22;1545;51.728;8.796;2024-01-15T04:43:41;1.30;98.80
3069;DHT22;1545;51.728;8.796;2024-01-15T04:46:06;1.30;98.80
3069;DHT22;1545;51.728;8.796;2024-01-15T04:48:32;1.30;98.80
3069;DHT22;1545;51.728;8.796;2024-01-15T04:50:58;1.30;98.80
3069;DHT22;1545;51.728;8.796;2024-01-15T04:53:23;1.30;98.80
3069;DHT22;1545;51.728;8.796;2024-01-15T04:55:49;1.30;98.80
3069;DHT22;1545;51.728;8.796;2024-01-15T04:58:14;1.30;98.80
3069;DHT22;1545;51.728;8.796;2024-01-15T05:00:40;1.30;98.80
3069;DHT22;1545;51.728;8.796;2024-01-15T05:03:05;1.30;98.80
3069;DHT22;1545;51.728;8.796;2024-01-15T05:05:31;1.20;98.80
3069;DHT22;1545;51.728;8.796;2024-01-15T05:07:56;1.20;98.80
3069;DHT22;1545;51.728;8.796;2024-01-15T05:10:21;1.20;98.80
3069;DHT22;1545;51.728;8.796;2024-01-15T05:12:47;1.20;98.80
3069;DHT22;1545;51.728;8.796;2024-01-15T05:15:12;1.20;98.80
3069;DHT22;1545;51.728;8.796;2024-01-15T05:17:38;1.10;98.80
3069;DHT22;1545;51.728;8.796;2024-01-15T05:20:04;1.10;98.80
3069;DHT22;1545;51.728;8.796;2024-01-15T05:22:30;1.10;98.80
3069;DHT22;1545;51.728;8.796;2024-01-15T05:24:55;1.10;98.80
3069;DHT22;1545;51.728;8.796;2024-01-15T05:27:21;1.00;98.80
3069;DHT22;1545;51.728;8.796;2024-01-15T05:29:46;1.00;98.80
3069;DHT22;1545;51.728;8.796;2024-01-15T05:32:12;1.00;98.80
3069;DHT22;1545;51.728;8.796;2024-01-15T05:34:37;1.00;98.80
3069;DHT22;1545;51.728;8.796;2024-01-15T05:37:03;1.10;98.80
3069;DHT22;1545;51.728;8.796;2024-01-15T05:39:28;1.10;98.80
3069;DHT22;1545;51.728;8.796;2024-01-15T05:41:54;1.10;98.80
3069;DHT22;1545;51.728;8.796;2024-01-15T05:44:19;1.10;98.80
3069;DHT22;1545;51.728;8.796;2024-01-15T05:46:45;1.00;98.80
3069;DHT22;1545;51.728;8.796;2024-01-15T05:49:10;1.00;98.80
3069;DHT22;1545;51.728;8.796;2024-01-15T05:51:35;1.10;98.80
3069;DHT22;1545;51.728;8.796;2024-01-15T05:54:01;1.00;98.80
3069;DHT22;1545;51.728;8.796;2024-01-15T05:56:26;0.90;98.80
3069;DHT22;1545;51.728;8.796;2024-01-15T05:58:52;0.90;98.80
3069;DHT22;1545;51.728;8.796;2024-01-15T06:01:17;0.90;98.80
3069;DHT22;1545;51.728;8.796;2024-01-15T06:03:43;0.90;98.80
3069;DHT22;1545;51.728;8.796;2024-01-15T06:06:08;0.90;98.80
3069;DHT22;1545;51.728;8.796;2024-01-15T06:08:34;0.90;98.80
3069;DHT22;1545;51.728;8.796;2024-01-15T06:10:59;0.90;98.80
3069;DHT22;1545;51.728;8.796;2024-01-15T06:13:25;1.00;98.80
3069;DHT22;1545;51.728;8.796;2024-01-15T06:15:50;1.00;98.80
3069;DHT22;1545;51.728;8.796;2024-01-15T06:18:16;1.00;98.80
3069;DHT22;1545;51.728;8.796;2024-01-15T06:20:41;1.00;98.80
3069;DHT22;1545;51.728;8.796;2024-01-15T06:23:08;1.00;98.80
3069;DHT22;1545;51.728;8.796;2024-01-15T06:25:33;1.00;98.80
3069;DHT22;1545;51.728;8.796;2024-01-15T06:27:58;0.90;98.80
3069;DHT22;1545;51.728;8.796;2024-01-15T06:30:24;0.90;98.80
3069;DHT22;1545;51.728;8.796;2024-01-15T06:32:49;0.90;98.80
3069;DHT22;1545;51.728;8.796;2024-01-15T06:35:15;0.90;98.80
3069;DHT22;1545;51.728;8.796;2024-01-15T06:37:41;0.80;98.80
3069;DHT22;1545;51.728;8.796;2024-01-15T06:40:07;0.80;98.80
3069;DHT22;1545;51.728;8.796;2024-01-15T06:42:33;0.80;98.80
3069;DHT22;1545;51.728;8.796;2024-01-15T06:44:58;0.80;98.80
3069;DHT22;1545;51.728;8.796;2024-01-15T06:47:24;0.90;98.80
3069;DHT22;1545;51.728;8.796;2024-01-15T06:49:49;1.00;98.80
3069;DHT22;1545;51.728;8.796;2024-01-15T06:52:17;1.10;98.80
3069;DHT22;1545;51.728;8.796;2024-01-15T06:54:42;1.10;98.80
3069;DHT22;1545;51.728;8.796;2024-01-15T06:57:08;1.20;98.80
3069;DHT22;1545;51.728;8.796;2024-01-15T06:59:34;1.20;98.80
3069;DHT22;1545;51.728;8.796;2024-01-15T07:02:00;1.20;98.80
3069;DHT22;1545;51.728;8.796;2024-01-15T07:04:26;1.30;98.80
3069;DHT22;1545;51.728;8.796;2024-01-15T07:06:51;1.30;98.80
3069;DHT22;1545;51.728;8.796;2024-01-15T07:09:17;1.30;98.80
3069;DHT22;1545;51.728;8.796;2024-01-15T07:11:46;1.30;98.80
3069;DHT22;1545;51.728;8.796;2024-01-15T07:14:12;1.30;98.80
3069;DHT22;1545;51.728;8.796;2024-01-15T07:16:37;1.30;98.80
3069;DHT22;1545;51.728;8.796;2024-01-15T07:19:03;1.30;98.80
3069;DHT22;1545;51.728;8.796;2024-01-15T07:21:29;1.30;98.80
3069;DHT22;1545;51.728;8.796;2024-01-15T07:23:55;1.30;98.80
3069;DHT22;1545;51.728;8.796;2024-01-15T07:26:20;1.20;98.80
3069;DHT22;1545;51.728;8.796;2024-01-15T07:28:46;1.20;98.80
3069;DHT22;1545;51.728;8.796;2024-01-15T07:31:12;1.20;98.80
3069;DHT22;1545;51.728;8.796;2024-01-15T07:33:37;1.20;98.80
3069;DHT22;1545;51.728;8.796;2024-01-15T07:36:03;1.20;98.80
3069;DHT22;1545;51.728;8.796;2024-01-15T07:38:29;1.20;98.80
3069;DHT22;1545;51.728;8.796;2024-01-15T07:40:54;1.20;98.80
3069;DHT22;1545;51.728;8.796;2024-01-15T07:43:20;1.20;98.80
3069;DHT22;1545;51.728;8.796;2024-01-15T07:45:46;1.20;98.80
3069;DHT22;1545;51.728;8.796;2024-01-15T07:48:11;1.30;98.80
3069;DHT22;1545;51.728;8.796;2024-01-15T07:50:37;1.20;98.80
3069;DHT22;1545;51.728;8.796;2024-01-15T07:53:02;1.30;98.80
3069;DHT22;1545;51.728;8.796;2024-01-15T07:55:29;1.20;98.80
3069;DHT22;1545;51.728;8.796;2024-01-15T07:57:54;1.20;98.80
3069;DHT22;1545;51.728;8.796;2024-01-15T08:00:24;1.20;98.80
3069;DHT22;1545;51.728;8.796;2024-01-15T08:02:49;1.20;98.80
3069;DHT22;1545;51.728;8.796;2024-01-15T08:05:16;1.20;98.80
3069;DHT22;1545;51.728;8.796;2024-01-15T08:07:41;1.30;98.80
3069;DHT22;1545;51.728;8.796;2024-01-15T08:10:07;1.30;98.80
3069;DHT22;1545;51.728;8.796;2024-01-15T08:12:32;1.30;98.80
3069;DHT22;1545;51.728;8.796;2024-01-15T08:14:58;1.30;98.80
3069;DHT22;1545;51.728;8.796;2024-01-15T08:17:23;1.30;98.80
3069;DHT22;1545;51.728;8.796;2024-01-15T08:19:53;1.20;98.80
3069;DHT22;1545;51.728;8.796;2024-01-15T08:22:18;1.20;98.80
3069;DHT22;1545;51.728;8.796;2024-01-15T08:24:44;1.20;98.80
3069;DHT22;1545;51.728;8.796;2024-01-15T08:27:09;1.20;98.80
3069;DHT22;1545;51.728;8.796;2024-01-15T08:29:35;1.20;98.80
3069;DHT22;1545;51.728;8.796;2024-01-15T08:32:01;1.10;98.80
3069;DHT22;1545;51.728;8.796;2024-01-15T08:34:26;1.20;98.80
3069;DHT22;1545;51.728;8.796;2024-01-15T08:36:52;1.20;98.80
3069;DHT22;1545;51.728;8.796;2024-01-15T08:39:17;1.20;98.80
3069;DHT22;1545;51.728;8.796;2024-01-15T08:41:45;1.20;98.80
3069;DHT22;1545;51.728;8.796;2024-01-15T08:44:12;1.20;98.80
3069;DHT22;1545;51.728;8.796;2024-01-15T08:46:37;1.20;98.80
3069;DHT22;1545;51.728;8.796;2024-01-15T08:49:03;1.20;98.80
3069;DHT22;1545;51.728;8.796;2024-01-15T08:51:28;1.20;98.80
3069;DHT22;1545;51.728;8.796;2024-01-15T08:53:54;1.20;98.80
3069;DHT22;1545;51.728;8.796;2024-01-15T08:56:20;1.20;98.80
3069;DHT22;1545;51.728;8.796;2024-01-15T08:58:45;1.20;98.80
3069;DHT22;1545;51.728;8.796;2024-01-15T09:01:11;1.30;98.80
3069;DHT22;1545;51.728;8.796;2024-01-15T09:03:37;1.30;98.80
3069;DHT22;1545;51.728;8.796;2024-01-15T09:06:03;1.40;98.80
3069;DHT22;1545;51.728;8.796;2024-01-15T09:08:28;1.40;98.80
3069;DHT22;1545;51.728;8.796;2024-01-15T09:10:54;1.40;98.80
3069;DHT22;1545;51.728;8.796;2024-01-15T09:13:19;1.50;98.80
3069;DHT22;1545;51.728;8.796;2024-01-15T09:15:45;1.40;98.80
3069;DHT22;1545;51.728;8.796;2024-01-15T09:18:10;1.40;98.80
3069;DHT22;1545;51.728;8.796;2024-01-15T09:20:36;1.50;98.80
3069;DHT22;1545;51.728;8.796;2024-01-15T09:23:01;1.40;98.80
3069;DHT22;1545;51.728;8.796;2024-01-15T09:25:27;1.50;98.80
3069;DHT22;1545;51.728;8.796;2024-01-15T09:27:53;1.40;98.80
3069;DHT22;1545;51.728;8.796;2024-01-15T09:30:19;1.40;98.80
3069;DHT22;1545;51.728;8.796;2024-01-15T09:32:44;1.50;98.80
3069;DHT22;1545;51.728;8.796;2024-01-15T09:35:09;1.50;98.80
3069;DHT22;1545;51.728;8.796;2024-01-15T09:37:35;1.60;98.80
3069;DHT22;1545;51.728;8.796;2024-01-15T09:40:02;1.70;98.80
3069;DHT22;1545;51.728;8.796;2024-01-15T09:42:29;1.70;98.80
3069;DHT22;1545;51.728;8.796;2024-01-15T09:44:55;1.80;98.80
3069;DHT22;1545;51.728;8.796;2024-01-15T09:47:21;1.80;98.80
3069;DHT22;1545;51.728;8.796;2024-01-15T09:49:47;1.70;98.80
3069;DHT22;1545;51.728;8.796;2024-01-15T09:52:13;1.70;98.80
3069;DHT22;1545;51.728;8.796;2024-01-15T09:54:41;1.70;98.80
3069;DHT22;1545;51.728;8.796;2024-01-15T09:57:08;1.70;98.80
3069;DHT22;1545;51.728;8.796;2024-01-15T09:59:34;1.60;98.80
3069;DHT22;1545;51.728;8.796;2024-01-15T10:02:01;1.60;98.80
3069;DHT22;1545;51.728;8.796;2024-01-15T10:04:28;1.50;98.80
3069;DHT22;1545;51.728;8.796;2024-01-15T10:06:54;1.60;98.80
3069;DHT22;1545;51.728;8.796;2024-01-15T10:09:21;1.60;98.80
3069;DHT22;1545;51.728;8.796;2024-01-15T10:11:46;1.70;98.80
3069;DHT22;1545;51.728;8.796;2024-01-15T10:14:12;1.90;98.80
3069;DHT22;1545;51.728;8.796;2024-01-15T10:16:41;2.10;98.80
3069;DHT22;1545;51.728;8.796;2024-01-15T10:19:07;2.20;98.80
3069;DHT22;1545;51.728;8.796;2024-01-15T10:21:34;2.10;98.80
3069;DHT22;1545;51.728;8.796;2024-01-15T10:24:00;2.10;98.80
3069;DHT22;1545;51.728;8.796;2024-01-15T10:26:26;2.10;98.80
3069;DHT22;1545;51.728;8.796;2024-01-15T10:28:52;2.00;98.80
3069;DHT22;1545;51.728;8.796;2024-01-15T10:31:18;1.90;98.80
3069;DHT22;1545;51.728;8.796;2024-01-15T10:33:45;1.80;98.80
3069;DHT22;1545;51.728;8.796;2024-01-15T10:36:10;1.80;98.80
3069;DHT22;1545;51.728;8.796;2024-01-15T10:38:37;1.80;98.80
3069;DHT22;1545;51.728;8.796;2024-01-15T10:41:03;2.00;98.80
3069;DHT22;1545;51.728;8.796;2024-01-15T10:43:29;2.00;98.80
3069;DHT22;1545;51.728;8.796;2024-01-15T10:45:55;2.00;98.80
3069;DHT22;1545;51.728;8.796;2024-01-15T10:48:20;2.00;98.80
3069;DHT22;1545;51.728;8.796;2024-01-15T10:50:47;2.00;98.80
3069;DHT22;1545;51.728;8.796;2024-01-15T10:53:15;2.00;98.80
3069;DHT22;1545;51.728;8.796;2024-01-15T10:55:42;2.00;98.80
3069;DHT22;1545;51.728;8.796;2024-01-15T10:58:08;1.90;98.80
3069;DHT22;1545;51.728;8.796;2024-01-15T11:00:35;2.00;98.80
3069;DHT22;1545;51.728;8.796;2024-01-15T11:03:01;2.10;98.80
3069;DHT22;1545;51.728;8.796;2024-01-15T11:05:28;2.00;98.80
3069;DHT22;1545;51.728;8.796;2024-01-15T11:07:58;2.00;98.80
3069;DHT22;1545;51.728;8.796;2024-01-15T11:10:46;2.00;98.80
3069;DHT22;1545;51.728;8.796;2024-01-15T11:18:26;2.00;98.80
3069;DHT22;1545;51.728;8.796;2024-01-15T11:23:48;2.40;98.80
3069;DHT22;1545;51.728;8.796;2024-01-15T11:32:14;2.30;98.80
3069;DHT22;1545;51.728;8.796;2024-01-15T11:34:57;2.30;98.80
3069;DHT22;1545;51.728;8.796;2024-01-15T11:40:18;2.50;98.80
3069;DHT22;1545;51.728;8.796;2024-01-15T11:42:48;2.50;98.80
3069;DHT22;1545;51.728;8.796;2024-01-15T11:45:19;2.50;98.80
3069;DHT22;1545;51.728;8.796;2024-01-15T11:50:13;2.40;98.80
3069;DHT22;1545;51.728;8.796;2024-01-15T11:52:39;2.30;98.80
3069;DHT22;1545;51.728;8.796;2024-01-15T11:55:36;2.30;98.80
3069;DHT22;1545;51.728;8.796;2024-01-15T11:58:02;2.30;98.80
3069;DHT22;1545;51.728;8.796;2024-01-15T12:00:32;2.20;98.80
3069;DHT22;1545;51.728;8.796;2024-01-15T12:02:58;2.10;98.80
3069;DHT22;1545;51.728;8.796;2024-01-15T12:05:24;2.10;98.80
3069;DHT22;1545;51.728;8.796;2024-01-15T12:07:50;2.00;98.80
3069;DHT22;1545;51.728;8.796;2024-01-15T12:10:20;1.90;98.80
3069;DHT22;1545;51.728;8.796;2024-01-15T12:15:35;1.90;98.80
3069;DHT22;1545;51.728;8.796;2024-01-15T12:18:02;1.90;98.80
3069;DHT22;1545;51.728;8.796;2024-01-15T12:20:29;1.80;98.80
3069;DHT22;1545;51.728;8.796;2024-01-15T12:22:54;1.80;98.80
3069;DHT22;1545;51.728;8.796;2024-01-15T12:25:23;1.90;98.80
3069;DHT22;1545;51.728;8.796;2024-01-15T12:27:50;2.00;98.80
3069;DHT22;1545;51.728;8.796;2024-01-15T12:30:16;2.20;98.80
3069;DHT22;1545;51.728;8.796;2024-01-15T12:32:42;2.30;98.80
3069;DHT22;1545;51.728;8.796;2024-01-15T12:35:09;2.40;98.80
3069;DHT22;1545;51.728;8.796;2024-01-15T12:37:39;2.40;98.80
3069;DHT22;1545;51.728;8.796;2024-01-15T12:40:06;2.50;98.80
3069;DHT22;1545;51.728;8.796;2024-01-15T12:42:41;2.60;98.80
3069;DHT22;1545;51.728;8.796;2024-01-15T12:45:08;2.70;98.80
3069;DHT22;1545;51.728;8.796;2024-01-15T12:47:34;2.70;98.80
3069;DHT22;1545;51.728;8.796;2024-01-15T12:50:00;2.60;98.80
3069;DHT22;1545;51.728;8.796;2024-01-15T12:52:29;2.50;98.80
3069;DHT22;1545;51.728;8.796;2024-01-15T12:54:55;2.40;98.80
3069;DHT22;1545;51.728;8.796;2024-01-15T12:57:21;2.30;98.80
3069;DHT22;1545;51.728;8.796;2024-01-15T12:59:47;2.20;98.80
3069;DHT22;1545;51.728;8.796;2024-01-15T13:02:13;2.20;98.80
3069;DHT22;1545;51.728;8.796;2024-01-15T13:04:39;2.20;98.80
3069;DHT22;1545;51.728;8.796;2024-01-15T13:07:05;2.20;98.80
3069;DHT22;1545;51.728;8.796;2024-01-15T13:09:31;2.20;98.80
3069;DHT22;1545;51.728;8.796;2024-01-15T13:11:57;2.20;98.80
3069;DHT22;1545;51.728;8.796;2024-01-15T13:14:23;2.10;98.80
3069;DHT22;1545;51.728;8.796;2024-01-15T13:16:48;2.10;98.80
3069;DHT22;1545;51.728;8.796;2024-01-15T13:19:14;2.10;98.80
3069;DHT22;1545;51.728;8.796;2024-01-15T13:21:42;2.10;98.80
3069;DHT22;1545;51.728;8.796;2024-01-15T13:24:08;2.10;98.80
3069;DHT22;1545;51.728;8.796;2024-01-15T13:26:34;2.10;98.80
3069;DHT22;1545;51.728;8.796;2024-01-15T13:29:05;2.10;98.80
3069;DHT22;1545;51.728;8.796;2024-01-15T13:31:31;2.00;98.80
3069;DHT22;1545;51.728;8.796;2024-01-15T13:33:57;2.00;98.80
3069;DHT22;1545;51.728;8.796;2024-01-15T13:36:23;2.00;98.80
3069;DHT22;1545;51.728;8.796;2024-01-15T13:38:52;2.00;98.80
3069;DHT22;1545;51.728;8.796;2024-01-15T13:41:19;2.10;98.80
3069;DHT22;1545;51.728;8.796;2024-01-15T13:43:49;2.20;98.80
3069;DHT22;1545;51.728;8.796;2024-01-15T13:46:15;2.20;98.80
3069;DHT22;1545;51.728;8.796;2024-01-15T13:48:40;2.30;98.80
3069;DHT22;1545;51.728;8.796;2024-01-15T13:51:06;2.30;98.80
3069;DHT22;1545;51.728;8.796;2024-01-15T13:53:31;2.20;98.80
3069;DHT22;1545;51.728;8.796;2024-01-15T13:55:57;2.10;98.80
3069;DHT22;1545;51.728;8.796;2024-01-15T13:58:22;2.00;98.80
3069;DHT22;1545;51.728;8.796;2024-01-15T14:00:48;1.90;98.80
3069;DHT22;1545;51.728;8.796;2024-01-15T14:03:14;1.80;98.80
3069;DHT22;1545;51.728;8.796;2024-01-15T14:05:40;1.80;98.80
3069;DHT22;1545;51.728;8.796;2024-01-15T14:08:05;1.80;98.80
3069;DHT22;1545;51.728;8.796;2024-01-15T14:10:31;1.80;98.80
3069;DHT22;1545;51.728;8.796;2024-01-15T14:12:56;1.70;98.80
3069;DHT22;1545;51.728;8.796;2024-01-15T14:15:22;1.70;98.80
3069;DHT22;1545;51.728;8.796;2024-01-15T14:17:47;1.70;98.80
3069;DHT22;1545;51.728;8.796;2024-01-15T14:20:14;1.60;98.80
3069;DHT22;1545;51.728;8.796;2024-01-15T14:22:40;1.50;98.80
3069;DHT22;1545;51.728;8.796;2024-01-15T14:25:06;1.40;98.80
3069;DHT22;1545;51.728;8.796;2024-01-15T14:27:32;1.40;98.80
3069;DHT22;1545;51.728;8.796;2024-01-15T14:29:58;1.40;98.80
3069;DHT22;1545;51.728;8.796;2024-01-15T14:32:23;1.30;98.80
3069;DHT22;1545;51.728;8.796;2024-01-15T14:34:48;1.30;98.80
3069;DHT22;1545;51.728;8.796;2024-01-15T14:37:14;1.20;98.80
3069;DHT22;1545;51.728;8.796;2024-01-15T14:39:40;1.20;98.80
3069;DHT22;1545;51.728;8.796;2024-01-15T14:42:05;1.20;98.80
3069;DHT22;1545;51.728;8.796;2024-01-15T14:44:31;1.20;98.80
3069;DHT22;1545;51.728;8.796;2024-01-15T14:46:58;1.20;98.80
3069;DHT22;1545;51.728;8.796;2024-01-15T14:49:24;1.20;98.80
3069;DHT22;1545;51.728;8.796;2024-01-15T14:51:50;1.10;98.80
3069;DHT22;1545;51.728;8.796;2024-01-15T14:54:15;1.20;98.80
3069;DHT22;1545;51.728;8.796;2024-01-15T14:56:41;1.20;98.80
3069;DHT22;1545;51.728;8.796;2024-01-15T14:59:08;1.20;98.80
3069;DHT22;1545;51.728;8.796;2024-01-15T15:01:33;1.20;98.80
3069;DHT22;1545;51.728;8.796;2024-01-15T15:03:59;1.20;98.80
3069;DHT22;1545;51.728;8.796;2024-01-15T15:06:24;1.30;98.80
3069;DHT22;1545;51.728;8.796;2024-01-15T15:08:53;1.30;98.80
3069;DHT22;1545;51.728;8.796;2024-01-15T15:11:20;1.30;98.80
3069;DHT22;1545;51.728;8.796;2024-01-15T15:13:48;1.30;98.80
3069;DHT22;1545;51.728;8.796;2024-01-15T15:16:14;1.20;98.80
3069;DHT22;1545;51.728;8.796;2024-01-15T15:18:40;1.20;98.80
3069;DHT22;1545;51.728;8.796;2024-01-15T15:21:05;1.10;98.80
3069;DHT22;1545;51.728;8.796;2024-01-15T15:23:32;1.10;98.80
3069;DHT22;1545;51.728;8.796;2024-01-15T15:25:57;1.10;98.80
3069;DHT22;1545;51.728;8.796;2024-01-15T15:28:23;1.00;98.80
3069;DHT22;1545;51.728;8.796;2024-01-15T15:30:48;1.00;98.80
3069;DHT22;1545;51.728;8.796;2024-01-15T15:33:14;1.00;98.80
3069;DHT22;1545;51.728;8.796;2024-01-15T15:35:41;1.00;98.80
3069;DHT22;1545;51.728;8.796;2024-01-15T15:38:06;1.00;98.80
3069;DHT22;1545;51.728;8.796;2024-01-15T15:40:31;1.00;98.80
3069;DHT22;1545;51.728;8.796;2024-01-15T15:42:57;1.00;98.80
3069;DHT22;1545;51.728;8.796;2024-01-15T15:45:22;1.00;98.80
3069;DHT22;1545;51.728;8.796;2024-01-15T15:47:48;1.00;98.80
3069;DHT22;1545;51.728;8.796;2024-01-15T15:50:13;1.00;98.80
3069;DHT22;1545;51.728;8.796;2024-01-15T15:52:39;1.00;98.80
3069;DHT22;1545;51.728;8.796;2024-01-15T15:55:05;1.00;98.80
3069;DHT22;1545;51.728;8.796;2024-01-15T15:57:33;1.00;98.80
3069;DHT22;1545;51.728;8.796;2024-01-15T15:59:58;1.00;98.80
3069;DHT22;1545;51.728;8.796;2024-01-15T16:02:23;1.00;98.80
3069;DHT22;1545;51.728;8.796;2024-01-15T16:04:49;1.00;98.80
3069;DHT22;1545;51.728;8.796;2024-01-15T16:07:15;1.00;98.80
3069;DHT22;1545;51.728;8.796;2024-01-15T16:09:40;1.00;98.80
3069;DHT22;1545;51.728;8.796;2024-01-15T16:12:07;1.00;98.80
3069;DHT22;1545;51.728;8.796;2024-01-15T16:14:33;1.00;98.80
3069;DHT22;1545;51.728;8.796;2024-01-15T16:16:59;1.00;98.80
3069;DHT22;1545;51.728;8.796;2024-01-15T16:19:24;1.00;98.80
3069;DHT22;1545;51.728;8.796;2024-01-15T16:21:50;1.00;98.80
3069;DHT22;1545;51.728;8.796;2024-01-15T16:24:16;1.00;98.80
3069;DHT22;1545;51.728;8.796;2024-01-15T16:26:42;1.00;98.80
3069;DHT22;1545;51.728;8.796;2024-01-15T16:29:08;1.00;98.80
3069;DHT22;1545;51.728;8.796;2024-01-15T16:31:34;1.00;98.80